51VA weather

Skyview Airport
Manassas, Virginia, United States

Public forecast

Using degrees Fahrenheit for public forecast. Weather courtesy of forecast.io.

METAR (pilot weather report)

Closest report is Manassas Regional Airport/Harry P. Davis Field, 5.6 nm (10.3 km) E. Retrieved 2019/05/26 11:35 UTC (0 seconds ago):

KHEF 261135Z 00000KT 1SM BR OVC002 19/19 A3004 RMK AO2 PNO $

TAF (pilot weather forecast)

Closest forecast is Washington Dulles International Airport, 16.0 nm (29.7 km) NNE. Retrieved 2019/05/26 06:34 UTC (5 hours ago):

TAF KIAD 260532Z 2606/2712 18007KT P6SM SCT060 BKN200 FM260800 22004KT P6SM SCT045 FM261100 25004KT P6SM SCT250 FM261700 28008KT P6SM BKN040 FM262100 29009KT P6SM -SHRA VCTS BKN045CB FM270000 31007KT P6SM BKN060